sensor_id;sensor_type;location;lat;lon;timestamp;temperature;humidity
1602;DHT22;794;48.592;9.634;2023-02-24T00:00:03;8.20;1.00
1602;DHT22;794;48.592;9.634;2023-02-24T00:02:55;8.40;1.00
1602;DHT22;794;48.592;9.634;2023-02-24T00:05:23;8.20;1.00
1602;DHT22;794;48.592;9.634;2023-02-24T00:07:52;8.20;1.00
1602;DHT22;794;48.592;9.634;2023-02-24T00:10:19;8.40;1.00
1602;DHT22;794;48.592;9.634;2023-02-24T00:12:46;8.50;1.00
1602;DHT22;794;48.592;9.634;2023-02-24T00:15:13;8.10;1.00
1602;DHT22;794;48.592;9.634;2023-02-24T00:17:41;8.10;1.00
1602;DHT22;794;48.592;9.634;2023-02-24T00:20:10;8.20;1.00
1602;DHT22;794;48.592;9.634;2023-02-24T00:22:37;8.30;1.00
1602;DHT22;794;48.592;9.634;2023-02-24T00:25:07;8.50;1.00
1602;DHT22;794;48.592;9.634;2023-02-24T00:27:34;8.20;1.00
1602;DHT22;794;48.592;9.634;2023-02-24T00:30:01;7.80;1.00
1602;DHT22;794;48.592;9.634;2023-02-24T00:32:29;8.20;1.00
1602;DHT22;794;48.592;9.634;2023-02-24T00:34:56;8.30;1.00
1602;DHT22;794;48.592;9.634;2023-02-24T00:37:23;8.00;1.00
1602;DHT22;794;48.592;9.634;2023-02-24T00:39:50;8.00;1.00
1602;DHT22;794;48.592;9.634;2023-02-24T00:42:23;8.00;1.00
1602;DHT22;794;48.592;9.634;2023-02-24T00:44:50;8.00;1.00
1602;DHT22;794;48.592;9.634;2023-02-24T00:47:18;8.30;1.00
1602;DHT22;794;48.592;9.634;2023-02-24T00:49:46;8.40;1.00
1602;DHT22;794;48.592;9.634;2023-02-24T00:52:17;8.40;1.00
1602;DHT22;794;48.592;9.634;2023-02-24T00:54:45;8.30;1.00
1602;DHT22;794;48.592;9.634;2023-02-24T00:57:13;8.50;1.00
1602;DHT22;794;48.592;9.634;2023-02-24T00:59:43;7.30;1.00
1602;DHT22;794;48.592;9.634;2023-02-24T01:02:12;8.00;1.00
1602;DHT22;794;48.592;9.634;2023-02-24T01:04:39;8.20;1.00
1602;DHT22;794;48.592;9.634;2023-02-24T01:07:09;8.30;1.00
1602;DHT22;794;48.592;9.634;2023-02-24T01:09:39;8.30;1.00
1602;DHT22;794;48.592;9.634;2023-02-24T01:12:07;8.10;1.00
1602;DHT22;794;48.592;9.634;2023-02-24T01:14:53;8.40;1.00
1602;DHT22;794;48.592;9.634;2023-02-24T01:17:20;8.20;1.00
1602;DHT22;794;48.592;9.634;2023-02-24T01:19:48;8.40;1.00
1602;DHT22;794;48.592;9.634;2023-02-24T01:22:16;8.90;1.00
1602;DHT22;794;48.592;9.634;2023-02-24T01:24:44;8.30;1.00
1602;DHT22;794;48.592;9.634;2023-02-24T01:27:12;8.30;1.00
1602;DHT22;794;48.592;9.634;2023-02-24T01:29:39;8.60;1.00
1602;DHT22;794;48.592;9.634;2023-02-24T01:32:12;8.80;1.00
1602;DHT22;794;48.592;9.634;2023-02-24T01:34:41;8.60;1.00
1602;DHT22;794;48.592;9.634;2023-02-24T01:37:08;8.40;1.00
1602;DHT22;794;48.592;9.634;2023-02-24T01:39:35;8.30;1.00
1602;DHT22;794;48.592;9.634;2023-02-24T01:42:04;8.30;1.00
1602;DHT22;794;48.592;9.634;2023-02-24T01:47:49;8.30;1.00
1602;DHT22;794;48.592;9.634;2023-02-24T01:50:19;8.20;1.00
1602;DHT22;794;48.592;9.634;2023-02-24T01:52:48;8.30;1.00
1602;DHT22;794;48.592;9.634;2023-02-24T01:55:20;7.30;1.00
1602;DHT22;794;48.592;9.634;2023-02-24T01:57:51;8.30;1.00
1602;DHT22;794;48.592;9.634;2023-02-24T02:00:20;8.10;1.00
1602;DHT22;794;48.592;9.634;2023-02-24T02:03:06;8.20;1.00
1602;DHT22;794;48.592;9.634;2023-02-24T02:05:37;8.50;1.00
1602;DHT22;794;48.592;9.634;2023-02-24T02:08:05;8.60;1.00
1602;DHT22;794;48.592;9.634;2023-02-24T02:10:34;8.60;1.00
1602;DHT22;794;48.592;9.634;2023-02-24T02:13:04;8.30;1.00
1602;DHT22;794;48.592;9.634;2023-02-24T02:15:36;8.50;1.00
1602;DHT22;794;48.592;9.634;2023-02-24T02:18:13;8.30;1.00
1602;DHT22;794;48.592;9.634;2023-02-24T02:20:57;8.60;1.00
1602;DHT22;794;48.592;9.634;2023-02-24T02:26:49;8.10;1.00
1602;DHT22;794;48.592;9.634;2023-02-24T02:35:45;8.80;1.00
1602;DHT22;794;48.592;9.634;2023-02-24T02:38:19;8.60;1.00
1602;DHT22;794;48.592;9.634;2023-02-24T02:40:54;8.40;1.00
1602;DHT22;794;48.592;9.634;2023-02-24T02:43:27;8.60;1.00
1602;DHT22;794;48.592;9.634;2023-02-24T02:46:01;8.70;1.00
1602;DHT22;794;48.592;9.634;2023-02-24T02:48:37;8.40;1.00
1602;DHT22;794;48.592;9.634;2023-02-24T02:51:08;8.70;1.00
1602;DHT22;794;48.592;9.634;2023-02-24T02:53:42;8.80;1.00
1602;DHT22;794;48.592;9.634;2023-02-24T02:56:16;8.80;1.00
1602;DHT22;794;48.592;9.634;2023-02-24T02:58:47;9.00;1.00
1602;DHT22;794;48.592;9.634;2023-02-24T03:01:18;9.00;1.00
1602;DHT22;794;48.592;9.634;2023-02-24T03:03:50;8.70;1.00
1602;DHT22;794;48.592;9.634;2023-02-24T03:06:23;8.50;1.00
1602;DHT22;794;48.592;9.634;2023-02-24T03:08:55;8.80;1.00
1602;DHT22;794;48.592;9.634;2023-02-24T03:11:24;8.70;1.00
1602;DHT22;794;48.592;9.634;2023-02-24T03:13:55;7.60;1.00
1602;DHT22;794;48.592;9.634;2023-02-24T03:16:24;8.60;1.00
1602;DHT22;794;48.592;9.634;2023-02-24T03:18:57;8.60;1.00
1602;DHT22;794;48.592;9.634;2023-02-24T03:21:28;9.20;1.00
1602;DHT22;794;48.592;9.634;2023-02-24T03:23:58;8.60;1.00
1602;DHT22;794;48.592;9.634;2023-02-24T03:26:29;8.90;1.00
1602;DHT22;794;48.592;9.634;2023-02-24T03:29:05;8.60;1.00
1602;DHT22;794;48.592;9.634;2023-02-24T03:31:40;10.10;1.00
1602;DHT22;794;48.592;9.634;2023-02-24T03:34:14;8.60;1.00
1602;DHT22;794;48.592;9.634;2023-02-24T03:36:45;8.80;1.00
1602;DHT22;794;48.592;9.634;2023-02-24T03:39:12;8.40;1.00
1602;DHT22;794;48.592;9.634;2023-02-24T03:41:43;8.50;1.00
1602;DHT22;794;48.592;9.634;2023-02-24T03:44:13;8.40;1.00
1602;DHT22;794;48.592;9.634;2023-02-24T03:46:40;8.60;1.00
1602;DHT22;794;48.592;9.634;2023-02-24T03:49:09;8.80;1.00
1602;DHT22;794;48.592;9.634;2023-02-24T03:51:38;8.40;1.00
1602;DHT22;794;48.592;9.634;2023-02-24T03:54:21;8.20;1.00
1602;DHT22;794;48.592;9.634;2023-02-24T03:57:04;8.70;1.00
1602;DHT22;794;48.592;9.634;2023-02-24T03:59:42;8.50;1.00
1602;DHT22;794;48.592;9.634;2023-02-24T04:02:16;6.60;1.00
1602;DHT22;794;48.592;9.634;2023-02-24T04:04:47;8.80;1.00
1602;DHT22;794;48.592;9.634;2023-02-24T04:07:24;8.60;1.00
1602;DHT22;794;48.592;9.634;2023-02-24T04:10:02;8.40;1.00
1602;DHT22;794;48.592;9.634;2023-02-24T04:12:35;8.60;1.00
1602;DHT22;794;48.592;9.634;2023-02-24T04:15:07;9.10;1.00
1602;DHT22;794;48.592;9.634;2023-02-24T04:17:39;8.80;1.00
1602;DHT22;794;48.592;9.634;2023-02-24T04:20:09;8.40;1.00
1602;DHT22;794;48.592;9.634;2023-02-24T04:22:41;8.70;1.00
1602;DHT22;794;48.592;9.634;2023-02-24T04:25:11;8.70;1.00
1602;DHT22;794;48.592;9.634;2023-02-24T04:27:41;8.20;1.00
1602;DHT22;794;48.592;9.634;2023-02-24T04:30:10;8.80;1.00
1602;DHT22;794;48.592;9.634;2023-02-24T04:32:37;8.80;1.00
1602;DHT22;794;48.592;9.634;2023-02-24T04:35:11;8.60;1.00
1602;DHT22;794;48.592;9.634;2023-02-24T04:37:38;8.40;1.00
1602;DHT22;794;48.592;9.634;2023-02-24T04:40:13;8.60;1.00
1602;DHT22;794;48.592;9.634;2023-02-24T04:42:42;8.60;1.00
1602;DHT22;794;48.592;9.634;2023-02-24T04:45:14;8.60;1.00
1602;DHT22;794;48.592;9.634;2023-02-24T04:47:42;8.70;1.00
1602;DHT22;794;48.592;9.634;2023-02-24T04:50:12;8.80;1.00
1602;DHT22;794;48.592;9.634;2023-02-24T04:52:51;8.50;1.00
1602;DHT22;794;48.592;9.634;2023-02-24T04:55:22;8.80;1.00
1602;DHT22;794;48.592;9.634;2023-02-24T04:57:52;8.60;1.00
1602;DHT22;794;48.592;9.634;2023-02-24T05:00:19;8.20;1.00
1602;DHT22;794;48.592;9.634;2023-02-24T05:02:48;8.70;1.00
1602;DHT22;794;48.592;9.634;2023-02-24T05:05:16;8.60;1.00
1602;DHT22;794;48.592;9.634;2023-02-24T05:07:50;8.60;1.00
1602;DHT22;794;48.592;9.634;2023-02-24T05:10:18;8.20;1.00
1602;DHT22;794;48.592;9.634;2023-02-24T05:12:46;8.30;1.00
1602;DHT22;794;48.592;9.634;2023-02-24T05:15:14;8.40;1.00
1602;DHT22;794;48.592;9.634;2023-02-24T05:17:40;7.80;1.00
1602;DHT22;794;48.592;9.634;2023-02-24T05:20:09;8.40;1.00
1602;DHT22;794;48.592;9.634;2023-02-24T05:22:53;8.30;1.00
1602;DHT22;794;48.592;9.634;2023-02-24T05:25:21;8.30;1.00
1602;DHT22;794;48.592;9.634;2023-02-24T05:27:51;8.10;1.00
1602;DHT22;794;48.592;9.634;2023-02-24T05:30:18;8.30;1.00
1602;DHT22;794;48.592;9.634;2023-02-24T05:32:45;8.10;1.00
1602;DHT22;794;48.592;9.634;2023-02-24T05:35:12;8.10;1.00
1602;DHT22;794;48.592;9.634;2023-02-24T05:37:39;8.30;1.00
1602;DHT22;794;48.592;9.634;2023-02-24T05:40:09;8.20;1.00
1602;DHT22;794;48.592;9.634;2023-02-24T05:42:39;8.50;1.00
1602;DHT22;794;48.592;9.634;2023-02-24T05:45:11;8.60;1.00
1602;DHT22;794;48.592;9.634;2023-02-24T05:47:38;8.20;1.00
1602;DHT22;794;48.592;9.634;2023-02-24T05:50:06;8.60;1.00
1602;DHT22;794;48.592;9.634;2023-02-24T05:52:36;8.50;1.00
1602;DHT22;794;48.592;9.634;2023-02-24T05:55:04;8.60;1.00
1602;DHT22;794;48.592;9.634;2023-02-24T05:57:38;8.50;1.00
1602;DHT22;794;48.592;9.634;2023-02-24T06:00:07;8.70;1.00
1602;DHT22;794;48.592;9.634;2023-02-24T06:02:42;8.60;1.00
1602;DHT22;794;48.592;9.634;2023-02-24T06:05:16;8.60;1.00
1602;DHT22;794;48.592;9.634;2023-02-24T06:07:54;8.30;1.00
1602;DHT22;794;48.592;9.634;2023-02-24T06:10:28;8.40;1.00
1602;DHT22;794;48.592;9.634;2023-02-24T06:12:56;8.40;1.00
1602;DHT22;794;48.592;9.634;2023-02-24T06:15:23;8.40;1.00
1602;DHT22;794;48.592;9.634;2023-02-24T06:17:51;8.40;1.00
1602;DHT22;794;48.592;9.634;2023-02-24T06:20:21;8.70;1.00
1602;DHT22;794;48.592;9.634;2023-02-24T06:22:48;8.20;1.00
1602;DHT22;794;48.592;9.634;2023-02-24T06:25:19;8.80;1.00
1602;DHT22;794;48.592;9.634;2023-02-24T06:27:50;8.30;1.00
1602;DHT22;794;48.592;9.634;2023-02-24T06:30:20;8.40;1.00
1602;DHT22;794;48.592;9.634;2023-02-24T06:32:48;8.30;1.00
1602;DHT22;794;48.592;9.634;2023-02-24T06:35:17;8.40;1.00
1602;DHT22;794;48.592;9.634;2023-02-24T06:37:45;8.00;1.00
1602;DHT22;794;48.592;9.634;2023-02-24T06:40:12;8.30;1.00
1602;DHT22;794;48.592;9.634;2023-02-24T06:42:45;8.30;1.00
1602;DHT22;794;48.592;9.634;2023-02-24T06:45:12;8.40;1.00
1602;DHT22;794;48.592;9.634;2023-02-24T06:47:39;8.40;1.00
1602;DHT22;794;48.592;9.634;2023-02-24T06:50:09;8.40;1.00
1602;DHT22;794;48.592;9.634;2023-02-24T06:52:38;8.40;1.00
1602;DHT22;794;48.592;9.634;2023-02-24T06:55:06;8.60;1.00
1602;DHT22;794;48.592;9.634;2023-02-24T06:57:50;8.60;1.00
1602;DHT22;794;48.592;9.634;2023-02-24T07:00:22;8.60;1.00
1602;DHT22;794;48.592;9.634;2023-02-24T07:03:01;9.10;1.00
1602;DHT22;794;48.592;9.634;2023-02-24T07:05:40;8.60;1.00
1602;DHT22;794;48.592;9.634;2023-02-24T07:08:08;8.70;1.00
1602;DHT22;794;48.592;9.634;2023-02-24T07:10:35;8.60;1.00
1602;DHT22;794;48.592;9.634;2023-02-24T07:13:04;8.70;1.00
1602;DHT22;794;48.592;9.634;2023-02-24T07:15:34;8.70;1.00
1602;DHT22;794;48.592;9.634;2023-02-24T07:18:02;8.70;1.00
1602;DHT22;794;48.592;9.634;2023-02-24T07:20:29;9.00;1.00
1602;DHT22;794;48.592;9.634;2023-02-24T07:22:59;9.00;1.00
1602;DHT22;794;48.592;9.634;2023-02-24T07:25:29;9.10;1.00
1602;DHT22;794;48.592;9.634;2023-02-24T07:27:58;9.30;1.00
1602;DHT22;794;48.592;9.634;2023-02-24T07:30:27;9.20;1.00
1602;DHT22;794;48.592;9.634;2023-02-24T07:32:54;9.40;1.00
1602;DHT22;794;48.592;9.634;2023-02-24T07:35:21;10.10;1.00
1602;DHT22;794;48.592;9.634;2023-02-24T07:37:49;9.30;1.00
1602;DHT22;794;48.592;9.634;2023-02-24T07:40:16;9.30;1.00
1602;DHT22;794;48.592;9.634;2023-02-24T07:42:47;9.30;1.00
1602;DHT22;794;48.592;9.634;2023-02-24T07:45:14;9.20;1.00
1602;DHT22;794;48.592;9.634;2023-02-24T07:47:41;9.30;1.00
1602;DHT22;794;48.592;9.634;2023-02-24T07:50:10;9.00;1.00
1602;DHT22;794;48.592;9.634;2023-02-24T07:52:39;9.00;1.00
1602;DHT22;794;48.592;9.634;2023-02-24T07:55:07;9.40;1.00
1602;DHT22;794;48.592;9.634;2023-02-24T07:57:34;9.80;1.00
1602;DHT22;794;48.592;9.634;2023-02-24T08:00:06;9.60;1.00
1602;DHT22;794;48.592;9.634;2023-02-24T08:02:44;10.10;1.00
1602;DHT22;794;48.592;9.634;2023-02-24T08:05:11;10.00;1.00
1602;DHT22;794;48.592;9.634;2023-02-24T08:07:38;10.30;1.00
1602;DHT22;794;48.592;9.634;2023-02-24T08:10:06;10.50;1.00
1602;DHT22;794;48.592;9.634;2023-02-24T08:12:49;10.60;1.00
1602;DHT22;794;48.592;9.634;2023-02-24T08:15:21;10.40;1.00
1602;DHT22;794;48.592;9.634;2023-02-24T08:17:52;10.20;1.00
1602;DHT22;794;48.592;9.634;2023-02-24T08:20:24;10.10;1.00
1602;DHT22;794;48.592;9.634;2023-02-24T08:22:53;10.40;1.00
1602;DHT22;794;48.592;9.634;2023-02-24T08:25:21;10.30;1.00
1602;DHT22;794;48.592;9.634;2023-02-24T08:27:50;9.70;1.00
1602;DHT22;794;48.592;9.634;2023-02-24T08:30:23;9.90;1.00
1602;DHT22;794;48.592;9.634;2023-02-24T12:05:10;10.70;1.00
1602;DHT22;794;48.592;9.634;2023-02-24T12:07:41;10.90;1.00
1602;DHT22;794;48.592;9.634;2023-02-24T12:10:15;10.80;1.00
1602;DHT22;794;48.592;9.634;2023-02-24T12:12:47;10.70;1.00
1602;DHT22;794;48.592;9.634;2023-02-24T12:15:25;10.70;1.00
1602;DHT22;794;48.592;9.634;2023-02-24T12:18:00;10.80;1.00
1602;DHT22;794;48.592;9.634;2023-02-24T12:20:35;11.20;1.00
1602;DHT22;794;48.592;9.634;2023-02-24T12:23:12;11.30;1.00
1602;DHT22;794;48.592;9.634;2023-02-24T12:26:00;11.60;1.00
1602;DHT22;794;48.592;9.634;2023-02-24T12:28:50;11.70;1.00
1602;DHT22;794;48.592;9.634;2023-02-24T12:31:27;12.10;1.00
1602;DHT22;794;48.592;9.634;2023-02-24T12:34:04;11.90;1.00
1602;DHT22;794;48.592;9.634;2023-02-24T12:36:57;12.10;1.00
1602;DHT22;794;48.592;9.634;2023-02-24T12:39:38;12.10;1.00
1602;DHT22;794;48.592;9.634;2023-02-24T12:42:16;11.90;1.00
1602;DHT22;794;48.592;9.634;2023-02-24T12:44:50;11.70;1.00
1602;DHT22;794;48.592;9.634;2023-02-24T12:47:26;11.90;1.00
1602;DHT22;794;48.592;9.634;2023-02-24T12:50:14;12.00;1.00
1602;DHT22;794;48.592;9.634;2023-02-24T12:52:52;11.70;1.00
1602;DHT22;794;48.592;9.634;2023-02-24T12:55:25;12.30;1.00
1602;DHT22;794;48.592;9.634;2023-02-24T12:58:00;12.40;1.00
1602;DHT22;794;48.592;9.634;2023-02-24T13:00:35;12.20;1.00
1602;DHT22;794;48.592;9.634;2023-02-24T13:03:14;12.00;1.00
1602;DHT22;794;48.592;9.634;2023-02-24T13:05:46;11.80;1.00
1602;DHT22;794;48.592;9.634;2023-02-24T13:08:23;12.30;1.00
1602;DHT22;794;48.592;9.634;2023-02-24T13:11:02;11.70;1.00
1602;DHT22;794;48.592;9.634;2023-02-24T13:13:36;11.70;1.00
1602;DHT22;794;48.592;9.634;2023-02-24T13:16:08;11.50;1.00
1602;DHT22;794;48.592;9.634;2023-02-24T13:18:37;11.10;1.00
1602;DHT22;794;48.592;9.634;2023-02-24T13:21:06;11.00;1.00
1602;DHT22;794;48.592;9.634;2023-02-24T13:23:39;10.50;1.00
1602;DHT22;794;48.592;9.634;2023-02-24T13:26:06;10.60;1.00
1602;DHT22;794;48.592;9.634;2023-02-24T13:28:35;10.50;1.00
1602;DHT22;794;48.592;9.634;2023-02-24T13:31:05;10.60;1.00
1602;DHT22;794;48.592;9.634;2023-02-24T13:33:33;10.60;1.00
1602;DHT22;794;48.592;9.634;2023-02-24T13:36:08;10.90;1.00
1602;DHT22;794;48.592;9.634;2023-02-24T13:38:39;11.40;1.00
1602;DHT22;794;48.592;9.634;2023-02-24T13:41:34;11.40;1.00
1602;DHT22;794;48.592;9.634;2023-02-24T13:44:03;11.50;1.00
1602;DHT22;794;48.592;9.634;2023-02-24T13:46:51;11.30;1.00
1602;DHT22;794;48.592;9.634;2023-02-24T13:49:26;11.00;1.00
1602;DHT22;794;48.592;9.634;2023-02-24T13:51:59;11.00;1.00
1602;DHT22;794;48.592;9.634;2023-02-24T13:57:44;10.90;1.00
1602;DHT22;794;48.592;9.634;2023-02-24T14:00:20;10.90;1.00
1602;DHT22;794;48.592;9.634;2023-02-24T14:02:51;10.30;1.00
1602;DHT22;794;48.592;9.634;2023-02-24T14:05:21;10.20;1.00
1602;DHT22;794;48.592;9.634;2023-02-24T14:07:50;10.10;1.00
1602;DHT22;794;48.592;9.634;2023-02-24T14:10:20;10.30;1.00
1602;DHT22;794;48.592;9.634;2023-02-24T14:12:53;10.40;1.00
1602;DHT22;794;48.592;9.634;2023-02-24T14:15:25;10.30;1.00
1602;DHT22;794;48.592;9.634;2023-02-24T14:17:57;10.20;1.00
1602;DHT22;794;48.592;9.634;2023-02-24T14:20:26;10.20;1.00
1602;DHT22;794;48.592;9.634;2023-02-24T14:22:55;9.90;1.00
1602;DHT22;794;48.592;9.634;2023-02-24T14:25:27;10.00;1.00
1602;DHT22;794;48.592;9.634;2023-02-24T14:27:56;10.00;1.00
1602;DHT22;794;48.592;9.634;2023-02-24T14:30:26;10.20;1.00
1602;DHT22;794;48.592;9.634;2023-02-24T14:32:55;10.30;1.00
1602;DHT22;794;48.592;9.634;2023-02-24T14:35:31;10.70;1.00
1602;DHT22;794;48.592;9.634;2023-02-24T14:37:58;10.80;1.00
1602;DHT22;794;48.592;9.634;2023-02-24T14:40:26;10.50;1.00
1602;DHT22;794;48.592;9.634;2023-02-24T14:42:54;10.80;1.00
1602;DHT22;794;48.592;9.634;2023-02-24T14:45:24;10.60;1.00
1602;DHT22;794;48.592;9.634;2023-02-24T14:47:51;10.90;1.00
1602;DHT22;794;48.592;9.634;2023-02-24T14:50:21;10.70;1.00
1602;DHT22;794;48.592;9.634;2023-02-24T14:52:52;10.30;1.00
1602;DHT22;794;48.592;9.634;2023-02-24T14:55:23;10.40;1.00
1602;DHT22;794;48.592;9.634;2023-02-24T14:57:56;10.40;1.00
1602;DHT22;794;48.592;9.634;2023-02-24T15:00:26;10.40;1.00
1602;DHT22;794;48.592;9.634;2023-02-24T15:02:59;10.30;1.00
1602;DHT22;794;48.592;9.634;2023-02-24T15:05:28;10.10;1.00
1602;DHT22;794;48.592;9.634;2023-02-24T15:07:55;10.30;1.00
1602;DHT22;794;48.592;9.634;2023-02-24T15:10:24;10.00;1.00
1602;DHT22;794;48.592;9.634;2023-02-24T15:12:56;10.20;1.00
1602;DHT22;794;48.592;9.634;2023-02-24T15:15:25;10.00;1.00
1602;DHT22;794;48.592;9.634;2023-02-24T15:17:55;10.20;1.00
1602;DHT22;794;48.592;9.634;2023-02-24T15:20:25;10.10;1.00
1602;DHT22;794;48.592;9.634;2023-02-24T15:22:53;9.80;1.00
1602;DHT22;794;48.592;9.634;2023-02-24T15:25:23;9.80;1.00
1602;DHT22;794;48.592;9.634;2023-02-24T15:27:52;9.80;1.00
1602;DHT22;794;48.592;9.634;2023-02-24T15:30:32;9.90;1.00
1602;DHT22;794;48.592;9.634;2023-02-24T15:33:04;9.80;1.00
1602;DHT22;794;48.592;9.634;2023-02-24T15:35:34;10.00;1.00
1602;DHT22;794;48.592;9.634;2023-02-24T15:38:03;9.70;1.00
1602;DHT22;794;48.592;9.634;2023-02-24T15:40:31;9.70;1.00
1602;DHT22;794;48.592;9.634;2023-02-24T15:43:06;9.90;1.00
1602;DHT22;794;48.592;9.634;2023-02-24T15:45:37;9.90;1.00
1602;DHT22;794;48.592;9.634;2023-02-24T15:48:18;9.80;1.00
1602;DHT22;794;48.592;9.634;2023-02-24T15:50:46;9.40;1.00
1602;DHT22;794;48.592;9.634;2023-02-24T15:53:14;9.50;1.00
1602;DHT22;794;48.592;9.634;2023-02-24T15:55:42;9.90;1.00
1602;DHT22;794;48.592;9.634;2023-02-24T15:58:13;9.70;1.00
1602;DHT22;794;48.592;9.634;2023-02-24T16:00:43;9.30;1.00
1602;DHT22;794;48.592;9.634;2023-02-24T16:03:10;9.10;1.00
1602;DHT22;794;48.592;9.634;2023-02-24T16:05:37;9.30;1.00
1602;DHT22;794;48.592;9.634;2023-02-24T16:08:04;9.10;1.00
1602;DHT22;794;48.592;9.634;2023-02-24T16:10:31;9.00;1.00
1602;DHT22;794;48.592;9.634;2023-02-24T16:12:59;9.30;1.00
1602;DHT22;794;48.592;9.634;2023-02-24T16:15:30;9.30;1.00
1602;DHT22;794;48.592;9.634;2023-02-24T16:18:00;9.70;1.00
1602;DHT22;794;48.592;9.634;2023-02-24T16:20:29;8.90;1.00
1602;DHT22;794;48.592;9.634;2023-02-24T16:22:59;9.10;1.00
1602;DHT22;794;48.592;9.634;2023-02-24T16:25:28;8.90;1.00
1602;DHT22;794;48.592;9.634;2023-02-24T16:27:55;8.90;1.00
1602;DHT22;794;48.592;9.634;2023-02-24T16:30:25;9.30;1.00
1602;DHT22;794;48.592;9.634;2023-02-24T16:32:55;9.40;1.00
1602;DHT22;794;48.592;9.634;2023-02-24T16:35:24;9.00;1.00
1602;DHT22;794;48.592;9.634;2023-02-24T16:37:51;9.00;1.00
1602;DHT22;794;48.592;9.634;2023-02-24T16:40:21;8.50;1.00
1602;DHT22;794;48.592;9.634;2023-02-24T16:42:50;8.70;1.00
1602;DHT22;794;48.592;9.634;2023-02-24T16:45:17;8.90;1.00
1602;DHT22;794;48.592;9.634;2023-02-24T16:47:46;8.80;1.00
1602;DHT22;794;48.592;9.634;2023-02-24T16:50:19;8.70;1.00
1602;DHT22;794;48.592;9.634;2023-02-24T16:52:48;8.80;1.00
1602;DHT22;794;48.592;9.634;2023-02-24T16:55:17;9.10;1.00
1602;DHT22;794;48.592;9.634;2023-02-24T16:57:44;8.60;1.00
1602;DHT22;794;48.592;9.634;2023-02-24T17:00:12;8.90;1.00
1602;DHT22;794;48.592;9.634;2023-02-24T17:02:41;8.90;1.00
1602;DHT22;794;48.592;9.634;2023-02-24T17:05:15;8.90;1.00
1602;DHT22;794;48.592;9.634;2023-02-24T17:07:44;9.10;1.00
1602;DHT22;794;48.592;9.634;2023-02-24T17:10:13;8.90;1.00
1602;DHT22;794;48.592;9.634;2023-02-24T17:12:40;8.60;1.00
1602;DHT22;794;48.592;9.634;2023-02-24T17:15:11;8.80;1.00
1602;DHT22;794;48.592;9.634;2023-02-24T17:17:39;8.80;1.00
1602;DHT22;794;48.592;9.634;2023-02-24T17:20:06;8.50;1.00
1602;DHT22;794;48.592;9.634;2023-02-24T17:22:34;8.60;1.00
1602;DHT22;794;48.592;9.634;2023-02-24T17:25:01;8.90;1.00
1602;DHT22;794;48.592;9.634;2023-02-24T17:27:29;8.30;1.00
1602;DHT22;794;48.592;9.634;2023-02-24T17:29:56;8.80;1.00
1602;DHT22;794;48.592;9.634;2023-02-24T17:32:23;7.10;1.00
1602;DHT22;794;48.592;9.634;2023-02-24T17:34:50;8.70;1.00
1602;DHT22;794;48.592;9.634;2023-02-24T17:37:17;8.60;1.00
1602;DHT22;794;48.592;9.634;2023-02-24T17:42:12;8.40;1.00
1602;DHT22;794;48.592;9.634;2023-02-24T17:44:40;8.60;1.00
1602;DHT22;794;48.592;9.634;2023-02-24T17:47:07;8.40;1.00
1602;DHT22;794;48.592;9.634;2023-02-24T17:49:34;8.40;1.00
1602;DHT22;794;48.592;9.634;2023-02-24T17:52:01;8.30;1.00
1602;DHT22;794;48.592;9.634;2023-02-24T17:54:28;8.30;1.00
1602;DHT22;794;48.592;9.634;2023-02-24T17:56:55;8.20;1.00
1602;DHT22;794;48.592;9.634;2023-02-24T17:59:22;8.90;1.00
1602;DHT22;794;48.592;9.634;2023-02-24T18:01:50;8.10;1.00
1602;DHT22;794;48.592;9.634;2023-02-24T18:04:17;8.30;1.00
1602;DHT22;794;48.592;9.634;2023-02-24T18:06:44;8.20;1.00
1602;DHT22;794;48.592;9.634;2023-02-24T18:09:11;7.90;1.00
1602;DHT22;794;48.592;9.634;2023-02-24T18:11:38;7.80;1.00
1602;DHT22;794;48.592;9.634;2023-02-24T18:14:05;7.70;1.00
1602;DHT22;794;48.592;9.634;2023-02-24T18:19:01;7.30;1.00
1602;DHT22;794;48.592;9.634;2023-02-24T18:26:23;7.00;1.00
1602;DHT22;794;48.592;9.634;2023-02-24T18:28:50;7.20;1.00
1602;DHT22;794;48.592;9.634;2023-02-24T18:31:20;7.20;1.00
1602;DHT22;794;48.592;9.634;2023-02-24T18:33:47;7.30;1.00
1602;DHT22;794;48.592;9.634;2023-02-24T18:36:17;7.20;1.00
1602;DHT22;794;48.592;9.634;2023-02-24T18:38:44;7.20;1.00
1602;DHT22;794;48.592;9.634;2023-02-24T18:41:13;7.10;1.00
1602;DHT22;794;48.592;9.634;2023-02-24T18:43:41;7.00;1.00
1602;DHT22;794;48.592;9.634;2023-02-24T18:46:11;6.80;1.00
1602;DHT22;794;48.592;9.634;2023-02-24T18:48:38;7.10;1.00
1602;DHT22;794;48.592;9.634;2023-02-24T18:51:09;7.50;1.00
1602;DHT22;794;48.592;9.634;2023-02-24T18:53:38;7.10;1.00
1602;DHT22;794;48.592;9.634;2023-02-24T18:56:07;6.90;1.00
1602;DHT22;794;48.592;9.634;2023-02-24T18:58:35;7.00;1.00
1602;DHT22;794;48.592;9.634;2023-02-24T19:01:09;7.10;1.00
1602;DHT22;794;48.592;9.634;2023-02-24T19:03:36;7.10;1.00
1602;DHT22;794;48.592;9.634;2023-02-24T19:06:04;7.10;1.00
1602;DHT22;794;48.592;9.634;2023-02-24T19:08:31;7.30;1.00
1602;DHT22;794;48.592;9.634;2023-02-24T19:11:06;6.70;1.00
1602;DHT22;794;48.592;9.634;2023-02-24T19:13:33;6.80;1.00
1602;DHT22;794;48.592;9.634;2023-02-24T19:16:00;6.90;1.00
1602;DHT22;794;48.592;9.634;2023-02-24T19:18:27;6.60;1.00
1602;DHT22;794;48.592;9.634;2023-02-24T19:20:54;6.70;1.00
1602;DHT22;794;48.592;9.634;2023-02-24T19:23:21;6.40;1.00
1602;DHT22;794;48.592;9.634;2023-02-24T19:25:48;6.40;1.00
1602;DHT22;794;48.592;9.634;2023-02-24T19:28:16;6.50;1.00
1602;DHT22;794;48.592;9.634;2023-02-24T19:30:44;6.60;1.00
1602;DHT22;794;48.592;9.634;2023-02-24T19:33:11;6.80;1.00
1602;DHT22;794;48.592;9.634;2023-02-24T19:35:39;6.80;1.00
1602;DHT22;794;48.592;9.634;2023-02-24T19:38:06;6.70;1.00
1602;DHT22;794;48.592;9.634;2023-02-24T19:40:34;6.30;1.00
1602;DHT22;794;48.592;9.634;2023-02-24T19:43:01;7.10;1.00
1602;DHT22;794;48.592;9.634;2023-02-24T19:45:29;6.60;1.00
1602;DHT22;794;48.592;9.634;2023-02-24T19:47:56;6.30;1.00
1602;DHT22;794;48.592;9.634;2023-02-24T19:50:23;6.30;1.00
1602;DHT22;794;48.592;9.634;2023-02-24T19:52:51;6.30;1.00
1602;DHT22;794;48.592;9.634;2023-02-24T19:55:18;6.10;1.00
1602;DHT22;794;48.592;9.634;2023-02-24T19:57:45;4.40;1.00
1602;DHT22;794;48.592;9.634;2023-02-24T20:00:12;6.40;1.00
1602;DHT22;794;48.592;9.634;2023-02-24T20:02:42;6.20;1.00
1602;DHT22;794;48.592;9.634;2023-02-24T20:05:09;6.20;1.00
1602;DHT22;794;48.592;9.634;2023-02-24T20:07:36;5.90;1.00
1602;DHT22;794;48.592;9.634;2023-02-24T20:10:04;6.20;1.00
1602;DHT22;794;48.592;9.634;2023-02-24T20:12:31;6.00;1.00
1602;DHT22;794;48.592;9.634;2023-02-24T20:14:57;6.20;1.00
1602;DHT22;794;48.592;9.634;2023-02-24T20:17:27;6.30;1.00
1602;DHT22;794;48.592;9.634;2023-02-24T20:19:56;6.00;1.00
1602;DHT22;794;48.592;9.634;2023-02-24T20:22:23;6.10;1.00
1602;DHT22;794;48.592;9.634;2023-02-24T20:24:50;6.60;1.00
1602;DHT22;794;48.592;9.634;2023-02-24T20:27:17;6.20;1.00
1602;DHT22;794;48.592;9.634;2023-02-24T20:29:47;5.90;1.00
1602;DHT22;794;48.592;9.634;2023-02-24T20:32:14;5.80;1.00
1602;DHT22;794;48.592;9.634;2023-02-24T20:34:41;5.80;1.00
1602;DHT22;794;48.592;9.634;2023-02-24T20:37:09;5.80;1.00
1602;DHT22;794;48.592;9.634;2023-02-24T20:39:36;5.70;1.00
1602;DHT22;794;48.592;9.634;2023-02-24T20:42:04;5.90;1.00
1602;DHT22;794;48.592;9.634;2023-02-24T20:44:31;6.20;1.00
1602;DHT22;794;48.592;9.634;2023-02-24T20:46:58;6.20;1.00
1602;DHT22;794;48.592;9.634;2023-02-24T20:49:25;6.00;1.00
1602;DHT22;794;48.592;9.634;2023-02-24T20:51:52;5.90;1.00
1602;DHT22;794;48.592;9.634;2023-02-24T20:54:20;6.00;1.00
1602;DHT22;794;48.592;9.634;2023-02-24T20:56:49;6.10;1.00
1602;DHT22;794;48.592;9.634;2023-02-24T20:59:17;6.10;1.00
1602;DHT22;794;48.592;9.634;2023-02-24T21:01:45;5.90;1.00
1602;DHT22;794;48.592;9.634;2023-02-24T21:04:13;6.40;1.00
1602;DHT22;794;48.592;9.634;2023-02-24T21:06:41;6.30;1.00